Time;durP1;ratioP1;P1;durP2;ratioP2;P2;SDS_P1;SDS_P2;PMS_P1;PMS_P2;Temp;Humidity;BMP_temperature;BMP_pressure;BME280_temperature;BME280_humidity;BME280_pressure;Samples;Min_cycle;Max_cycle;Signal;HPM_P1;HPM_P2
2022/12/12 00:02:26;;;;;;;16.70;9.93;;;;;;;;;;5076797;28;20457;-70
2022/12/12 00:04:57;;;;;;;18.37;10.57;;;;;;;;;;5077876;28;20540;-72
2022/12/12 00:07:25;;;;;;;21.70;9.37;;;;;;;;;;5077593;28;20551;-71
2022/12/12 00:09:53;;;;;;;19.10;8.43;;;;;;;;;;5077118;28;21010;-71
2022/12/12 00:12:21;;;;;;;19.60;10.20;;;;;;;;;;5077202;28;20456;-71
2022/12/12 00:14:50;;;;;;;18.37;9.40;;;;;;;;;;5076675;28;20772;-71
2022/12/12 00:17:17;;;;;;;16.87;9.57;;;;;;;;;;5076974;28;20463;-71
2022/12/12 00:19:45;;;;;;;17.00;9.73;;;;;;;;;;5077199;28;21062;-70
2022/12/12 00:22:12;;;;;;;16.30;9.80;;;;;;;;;;5076467;28;20449;-70
2022/12/12 00:24:40;;;;;;;15.93;9.97;;;;;;;;;;5084746;28;20768;-70
2022/12/12 00:27:08;;;;;;;16.70;8.40;;;;;;;;;;5096379;28;20485;-71
2022/12/12 00:29:36;;;;;;;18.50;9.33;;;;;;;;;;5097073;28;20576;-70
2022/12/12 00:32:07;;;;;;;20.67;9.37;;;;;;;;;;5096304;28;20448;-70
2022/12/12 00:34:36;;;;;;;21.30;9.37;;;;;;;;;;5097458;28;20550;-70
2022/12/12 00:39:56;;;;;;;17.50;10.80;;;;;;;;;;5087617;28;20437;-70
2022/12/12 00:42:26;;;;;;;19.13;11.63;;;;;;;;;;5096700;28;20924;-70
2022/12/12 00:44:53;;;;;;;19.90;10.60;;;;;;;;;;5096278;28;20482;-70
2022/12/12 00:47:22;;;;;;;20.67;10.07;;;;;;;;;;5096717;28;20903;-70
2022/12/12 00:49:53;;;;;;;24.97;12.67;;;;;;;;;;5097058;28;20448;-70
2022/12/12 00:52:22;;;;;;;19.77;11.77;;;;;;;;;;5096864;28;20875;-70
2022/12/12 00:54:49;;;;;;;18.30;8.10;;;;;;;;;;5096281;28;20447;-70
2022/12/12 00:57:17;;;;;;;16.30;10.23;;;;;;;;;;5097070;28;20467;-70
2022/12/12 00:59:45;;;;;;;21.23;11.73;;;;;;;;;;5096942;28;20485;-70
2022/12/12 01:02:15;;;;;;;18.17;10.07;;;;;;;;;;5097068;28;20451;-70
2022/12/12 01:04:46;;;;;;;22.80;11.10;;;;;;;;;;5096195;28;20448;-70
2022/12/12 01:07:14;;;;;;;12.97;7.27;;;;;;;;;;5096261;28;20482;-70
2022/12/12 01:09:42;;;;;;;19.23;9.80;;;;;;;;;;5091576;28;20457;-70
2022/12/12 01:12:11;;;;;;;16.17;9.03;;;;;;;;;;5075924;28;20877;-70
2022/12/12 01:14:39;;;;;;;18.23;9.83;;;;;;;;;;5077115;28;20456;-70
2022/12/12 01:17:36;;;;;;;18.20;10.00;;;;;;;;;;5075401;28;20488;-71
2022/12/12 01:20:06;;;;;;;22.70;11.03;;;;;;;;;;5075800;28;20563;-71
2022/12/12 01:25:27;;;;;;;16.90;8.63;;;;;;;;;;5075039;28;20423;-70
2022/12/12 01:27:55;;;;;;;17.53;9.53;;;;;;;;;;5076042;28;20456;-70
2022/12/12 01:30:24;;;;;;;25.93;10.80;;;;;;;;;;5076950;28;20471;-71
2022/12/12 01:32:52;;;;;;;19.10;11.40;;;;;;;;;;5091141;28;20448;-71
2022/12/12 01:35:21;;;;;;;18.43;9.47;;;;;;;;;;5095746;28;20487;-70
2022/12/12 01:37:49;;;;;;;18.00;11.27;;;;;;;;;;5094536;28;20469;-71
2022/12/12 01:40:19;;;;;;;19.33;10.30;;;;;;;;;;5096146;28;20448;-71
2022/12/12 01:42:46;;;;;;;19.33;8.80;;;;;;;;;;5096746;28;20789;-71
2022/12/12 01:45:29;;;;;;;22.33;10.70;;;;;;;;;;5095669;28;20737;-71
2022/12/12 01:47:57;;;;;;;22.47;9.80;;;;;;;;;;5047939;28;20497;-71
2022/12/12 01:50:26;;;;;;;17.23;9.60;;;;;;;;;;5096555;28;20526;-70
2022/12/12 01:52:55;;;;;;;19.33;9.37;;;;;;;;;;5096009;28;20489;-70
2022/12/12 01:55:24;;;;;;;19.00;8.63;;;;;;;;;;5098178;28;20483;-70
2022/12/12 01:57:53;;;;;;;19.60;10.30;;;;;;;;;;5099846;28;20451;-70
2022/12/12 02:00:23;;;;;;;15.20;8.03;;;;;;;;;;5100124;28;20474;-70
2022/12/12 02:02:52;;;;;;;18.50;8.17;;;;;;;;;;5099977;28;20462;-70
2022/12/12 02:05:25;;;;;;;18.77;10.40;;;;;;;;;;5100381;28;20483;-70
2022/12/12 02:07:58;;;;;;;20.40;10.53;;;;;;;;;;5100068;28;20499;-70
2022/12/12 02:10:25;;;;;;;16.47;10.40;;;;;;;;;;5100446;28;20463;-70
2022/12/12 02:12:53;;;;;;;14.20;8.60;;;;;;;;;;5100099;28;20860;-70
2022/12/12 02:15:21;;;;;;;20.20;9.73;;;;;;;;;;5099594;28;20486;-71
2022/12/12 02:18:02;;;;;;;22.60;10.47;;;;;;;;;;5099258;28;20973;-70
2022/12/12 02:20:48;;;;;;;23.40;10.30;;;;;;;;;;5099875;28;20459;-70
2022/12/12 02:23:37;;;;;;;20.23;9.47;;;;;;;;;;5099418;28;20451;-71
2022/12/12 02:26:15;;;;;;;18.70;9.60;;;;;;;;;;5099975;28;20462;-71
2022/12/12 02:28:58;;;;;;;17.80;8.80;;;;;;;;;;5099533;28;20500;-71
2022/12/12 02:31:29;;;;;;;19.63;11.30;;;;;;;;;;5055798;28;20816;-71
2022/12/12 02:34:02;;;;;;;24.27;11.00;;;;;;;;;;5099866;28;20448;-71
2022/12/12 02:36:36;;;;;;;18.57;9.33;;;;;;;;;;5099996;28;20483;-71
2022/12/12 02:39:06;;;;;;;15.37;9.63;;;;;;;;;;5100045;28;20453;-70
2022/12/12 02:41:40;;;;;;;16.70;8.73;;;;;;;;;;5099551;28;20471;-70
2022/12/12 02:44:15;;;;;;;14.20;10.10;;;;;;;;;;5099971;28;20448;-71
2022/12/12 02:46:48;;;;;;;18.70;10.03;;;;;;;;;;5099926;28;20486;-70
2022/12/12 02:49:20;;;;;;;19.63;12.60;;;;;;;;;;5100309;28;20448;-70
2022/12/12 02:51:49;;;;;;;19.13;11.20;;;;;;;;;;5101059;28;20459;-70
2022/12/12 02:54:19;;;;;;;22.43;10.30;;;;;;;;;;5101464;28;20470;-71
2022/12/12 02:56:50;;;;;;;18.13;9.33;;;;;;;;;;5100986;28;20487;-70
2022/12/12 02:59:22;;;;;;;15.90;9.40;;;;;;;;;;5101436;28;20454;-70
2022/12/12 03:02:02;;;;;;;22.83;10.53;;;;;;;;;;5101048;28;20460;-71
2022/12/12 03:10:14;;;;;;;17.00;10.97;;;;;;;;;;5099362;28;20842;-70
2022/12/12 03:12:47;;;;;;;17.40;10.57;;;;;;;;;;5099556;28;20501;-70
2022/12/12 03:15:18;;;;;;;15.77;8.97;;;;;;;;;;5098847;28;20535;-70
2022/12/12 03:17:57;;;;;;;17.40;7.87;;;;;;;;;;5099030;28;20448;-70
2022/12/12 03:20:27;;;;;;;18.37;11.27;;;;;;;;;;5097992;28;20580;-70
2022/12/12 03:22:57;;;;;;;15.80;9.30;;;;;;;;;;5098596;28;20765;-70
2022/12/12 03:25:28;;;;;;;24.40;9.23;;;;;;;;;;5098102;28;20467;-70
2022/12/12 03:28:06;;;;;;;14.70;8.87;;;;;;;;;;5098386;28;20452;-71
2022/12/12 03:30:45;;;;;;;21.03;10.10;;;;;;;;;;5098532;28;20466;-71
2022/12/12 03:33:20;;;;;;;20.13;8.37;;;;;;;;;;5098584;28;20550;-71
2022/12/12 03:35:56;;;;;;;12.73;8.77;;;;;;;;;;5098590;28;20479;-71
2022/12/12 03:38:26;;;;;;;18.47;10.07;;;;;;;;;;5098595;28;20451;-71
2022/12/12 03:40:55;;;;;;;16.57;9.20;;;;;;;;;;5098623;28;20447;-71
2022/12/12 03:43:25;;;;;;;20.50;10.30;;;;;;;;;;5097812;28;20824;-71
2022/12/12 03:45:56;;;;;;;17.30;9.40;;;;;;;;;;5098051;28;20458;-71
2022/12/12 03:48:28;;;;;;;21.37;10.13;;;;;;;;;;5098065;28;20504;-71
2022/12/12 03:50:57;;;;;;;19.43;10.53;;;;;;;;;;5097699;28;20539;-71
2022/12/12 03:53:28;;;;;;;17.97;9.47;;;;;;;;;;5097305;28;20529;-71
2022/12/12 03:55:57;;;;;;;12.73;8.57;;;;;;;;;;5097245;28;20528;-72
2022/12/12 03:58:29;;;;;;;22.53;11.30;;;;;;;;;;5094464;28;20556;-70
2022/12/12 04:00:59;;;;;;;18.23;8.47;;;;;;;;;;5097061;28;20516;-70
2022/12/12 04:03:34;;;;;;;15.23;9.03;;;;;;;;;;5097274;28;20452;-70
2022/12/12 04:14:54;;;;;;;18.87;9.37;;;;;;;;;;4990011;28;20968;-71
2022/12/12 04:17:39;;;;;;;21.43;11.30;;;;;;;;;;5046438;28;20561;-71
2022/12/12 04:23:16;;;;;;;21.13;10.53;;;;;;;;;;5077080;28;20439;-71
2022/12/12 04:28:30;;;;;;;18.00;9.70;;;;;;;;;;5076038;28;20527;-71
2022/12/12 04:31:00;;;;;;;27.13;9.77;;;;;;;;;;5076985;28;20440;-70
2022/12/12 04:33:29;;;;;;;18.93;9.73;;;;;;;;;;5077141;28;20456;-70
2022/12/12 04:36:00;;;;;;;14.17;8.10;;;;;;;;;;5076987;28;20517;-71
2022/12/12 04:38:29;;;;;;;21.07;8.80;;;;;;;;;;5076705;28;20791;-70
2022/12/12 04:41:00;;;;;;;16.40;8.90;;;;;;;;;;5076888;28;20914;-70
2022/12/12 04:43:30;;;;;;;15.00;8.63;;;;;;;;;;5077116;28;20545;-71
2022/12/12 04:46:00;;;;;;;20.70;7.80;;;;;;;;;;5076852;28;20535;-71
2022/12/12 04:48:32;;;;;;;15.37;10.10;;;;;;;;;;5076130;28;20541;-70
2022/12/12 04:51:02;;;;;;;22.93;10.50;;;;;;;;;;5076486;28;20518;-70
2022/12/12 04:53:33;;;;;;;20.83;11.77;;;;;;;;;;5076692;28;20464;-70
2022/12/12 04:56:04;;;;;;;17.50;7.90;;;;;;;;;;5075898;28;20452;-71
2022/12/12 04:58:32;;;;;;;20.30;7.30;;;;;;;;;;5076091;28;20464;-70
2022/12/12 05:01:04;;;;;;;19.90;11.23;;;;;;;;;;5077052;28;20453;-70
2022/12/12 05:03:37;;;;;;;22.30;9.40;;;;;;;;;;5076573;28;20464;-70
2022/12/12 05:06:10;;;;;;;12.70;8.37;;;;;;;;;;5076488;28;20539;-70
2022/12/12 05:08:40;;;;;;;20.63;8.93;;;;;;;;;;5076615;28;20745;-71
2022/12/12 05:11:08;;;;;;;24.23;10.40;;;;;;;;;;5076622;28;20460;-70
2022/12/12 05:13:38;;;;;;;13.80;9.20;;;;;;;;;;5085036;28;20468;-71
2022/12/12 05:16:11;;;;;;;20.00;10.97;;;;;;;;;;5096619;28;20447;-70
2022/12/12 05:18:38;;;;;;;20.57;11.37;;;;;;;;;;5096792;28;20467;-70
2022/12/12 05:21:08;;;;;;;21.83;10.70;;;;;;;;;;5096869;28;20511;-71
2022/12/12 05:23:36;;;;;;;25.00;11.60;;;;;;;;;;5096132;28;20455;-70
2022/12/12 05:26:07;;;;;;;17.73;9.87;;;;;;;;;;5096345;28;20463;-70
2022/12/12 05:28:35;;;;;;;21.60;11.90;;;;;;;;;;5098252;28;20458;-71
2022/12/12 05:31:03;;;;;;;20.63;8.77;;;;;;;;;;5100828;28;20457;-71
2022/12/12 05:33:33;;;;;;;14.47;9.57;;;;;;;;;;5101885;28;20463;-71
2022/12/12 05:36:01;;;;;;;14.77;10.93;;;;;;;;;;5102374;28;20455;-71
2022/12/12 05:38:30;;;;;;;16.50;10.50;;;;;;;;;;5101355;28;20828;-71
2022/12/12 05:41:00;;;;;;;14.80;9.03;;;;;;;;;;5101100;28;20460;-71
2022/12/12 05:43:28;;;;;;;21.77;9.23;;;;;;;;;;5099457;28;20863;-71
2022/12/12 05:45:56;;;;;;;20.27;9.70;;;;;;;;;;5098836;28;20455;-71
2022/12/12 05:48:23;;;;;;;20.43;10.10;;;;;;;;;;5099638;28;20443;-71
2022/12/12 05:50:51;;;;;;;18.80;8.40;;;;;;;;;;5099661;28;20455;-70
2022/12/12 05:59:22;;;;;;;19.73;9.20;;;;;;;;;;5078179;28;20444;-71
2022/12/12 06:02:04;;;;;;;19.47;11.23;;;;;;;;;;5099166;28;20798;-71
2022/12/12 06:04:35;;;;;;;21.80;10.37;;;;;;;;;;5100216;28;20487;-70
2022/12/12 06:07:05;;;;;;;24.67;10.37;;;;;;;;;;5098528;28;20470;-71
2022/12/12 06:09:34;;;;;;;19.67;10.63;;;;;;;;;;5099027;28;20549;-71
2022/12/12 06:18:06;;;;;;;25.10;11.10;;;;;;;;;;5094796;28;20778;-71
2022/12/12 06:20:35;;;;;;;20.33;8.60;;;;;;;;;;5097854;28;20451;-71
2022/12/12 06:23:09;;;;;;;17.43;8.40;;;;;;;;;;5097214;28;20475;-71
2022/12/12 06:25:37;;;;;;;17.77;9.73;;;;;;;;;;5096224;28;20523;-71
2022/12/12 06:28:05;;;;;;;24.20;11.63;;;;;;;;;;5097624;28;20444;-71
2022/12/12 06:30:33;;;;;;;24.23;9.07;;;;;;;;;;5097163;28;20720;-71
2022/12/12 06:33:02;;;;;;;23.60;11.70;;;;;;;;;;5096787;28;20488;-71
2022/12/12 06:35:30;;;;;;;21.20;11.30;;;;;;;;;;5096392;28;20455;-72
2022/12/12 06:37:58;;;;;;;18.80;9.57;;;;;;;;;;5096268;28;20490;-71
2022/12/12 06:40:26;;;;;;;21.87;10.07;;;;;;;;;;5096246;28;20448;-70
2022/12/12 06:42:54;;;;;;;17.03;10.50;;;;;;;;;;5095655;28;20550;-71
2022/12/12 06:45:21;;;;;;;19.33;10.93;;;;;;;;;;5095605;28;20467;-71
2022/12/12 06:47:51;;;;;;;29.43;9.60;;;;;;;;;;5096120;28;20458;-71
2022/12/12 06:50:23;;;;;;;23.13;9.90;;;;;;;;;;5094508;28;20498;-71
2022/12/12 06:52:50;;;;;;;15.53;10.27;;;;;;;;;;5096543;28;20902;-72
2022/12/12 06:55:21;;;;;;;24.93;11.30;;;;;;;;;;5093573;28;20475;-71
2022/12/12 06:57:49;;;;;;;23.27;11.33;;;;;;;;;;5084486;28;20571;-71
2022/12/12 07:00:18;;;;;;;17.20;9.60;;;;;;;;;;5075308;28;20531;-70
2022/12/12 07:02:48;;;;;;;19.17;10.23;;;;;;;;;;5084775;28;20465;-70
2022/12/12 07:05:15;;;;;;;27.40;11.60;;;;;;;;;;5075139;28;20452;-70
2022/12/12 07:07:48;;;;;;;24.13;9.67;;;;;;;;;;5077363;28;20460;-70
2022/12/12 07:10:19;;;;;;;21.47;11.70;;;;;;;;;;5078015;28;20927;-72
2022/12/12 07:12:49;;;;;;;18.93;9.27;;;;;;;;;;5076176;28;20523;-70
2022/12/12 07:15:17;;;;;;;22.00;10.83;;;;;;;;;;5076258;28;20456;-71
2022/12/12 07:17:45;;;;;;;18.03;10.93;;;;;;;;;;5080989;28;21025;-72
2022/12/12 07:20:12;;;;;;;28.87;11.90;;;;;;;;;;5096778;28;20467;-71
2022/12/12 07:22:43;;;;;;;23.63;11.10;;;;;;;;;;5092311;28;20545;-71
2022/12/12 07:25:14;;;;;;;20.45;10.05;;;;;;;;;;5093440;28;20798;-70
2022/12/12 07:27:43;;;;;;;15.87;9.40;;;;;;;;;;5098336;28;20218;-70
2022/12/12 07:30:15;;;;;;;20.87;11.93;;;;;;;;;;5091403;28;20486;-70
2022/12/12 07:32:46;;;;;;;23.67;12.07;;;;;;;;;;5081712;28;20484;-70
2022/12/12 07:35:24;;;;;;;19.80;10.70;;;;;;;;;;5093867;28;20491;-70
2022/12/12 07:37:52;;;;;;;18.57;9.57;;;;;;;;;;5092329;28;20483;-72
2022/12/12 07:40:22;;;;;;;25.13;12.10;;;;;;;;;;5096664;28;20464;-71
2022/12/12 07:42:52;;;;;;;18.90;10.50;;;;;;;;;;5077056;28;20504;-71
2022/12/12 07:45:24;;;;;;;21.73;12.37;;;;;;;;;;5092460;28;20579;-71
2022/12/12 07:53:45;;;;;;;22.57;12.70;;;;;;;;;;5094048;28;20973;-72
2022/12/12 07:59:32;;;;;;;28.47;11.73;;;;;;;;;;5079338;28;20494;-72
2022/12/12 08:02:03;;;;;;;30.03;13.80;;;;;;;;;;5084628;28;20467;-72
2022/12/12 08:04:36;;;;;;;25.03;11.67;;;;;;;;;;5085903;28;20487;-71
2022/12/12 08:07:10;;;;;;;21.30;9.90;;;;;;;;;;5084207;28;20530;-71
2022/12/12 08:12:46;;;;;;;24.27;12.80;;;;;;;;;;5090692;28;20420;-72
2022/12/12 08:15:22;;;;;;;25.50;12.43;;;;;;;;;;5088206;28;20474;-70
2022/12/12 08:18:05;;;;;;;26.57;13.10;;;;;;;;;;5093528;28;20471;-71
2022/12/12 08:21:02;;;;;;;23.97;12.17;;;;;;;;;;5076139;28;20468;-73
2022/12/12 08:23:30;;;;;;;27.47;13.80;;;;;;;;;;5080541;28;20460;-72
2022/12/12 08:26:06;;;;;;;23.70;11.60;;;;;;;;;;5093276;28;20873;-72
2022/12/12 08:28:48;;;;;;;22.13;11.57;;;;;;;;;;5093748;28;20459;-70
2022/12/12 08:34:12;;;;;;;20.97;12.27;;;;;;;;;;5076569;28;20722;-71
2022/12/12 08:36:44;;;;;;;20.13;9.00;;;;;;;;;;5080915;28;20551;-71
2022/12/12 08:39:19;;;;;;;27.43;12.40;;;;;;;;;;5086366;28;20488;-71
2022/12/12 08:42:03;;;;;;;30.40;13.43;;;;;;;;;;5083388;28;20452;-70
2022/12/12 08:47:53;;;;;;;32.03;16.20;;;;;;;;;;5065231;28;20862;-72
2022/12/12 08:50:23;;;;;;;36.83;13.10;;;;;;;;;;5092492;28;20984;-70
2022/12/12 08:52:51;;;;;;;27.10;13.03;;;;;;;;;;5091888;28;20460;-72
2022/12/12 08:55:20;;;;;;;31.67;13.00;;;;;;;;;;5083286;28;20466;-71
2022/12/12 08:57:48;;;;;;;29.97;13.67;;;;;;;;;;5085052;28;20507;-72
2022/12/12 09:00:16;;;;;;;11.50;6.80;;;;;;;;;;5077794;28;20954;-71
2022/12/12 09:03:12;;;;;;;19.30;8.40;;;;;;;;;;5087420;28;20474;-72
2022/12/12 09:14:37;;;;;;;29.38;14.52;;;;;;;;;;5071235;28;20584;-72
2022/12/12 09:17:11;;;;;;;26.30;13.95;;;;;;;;;;5087169;28;20201;-72
2022/12/12 09:23:05;;;;;;;21.20;12.37;;;;;;;;;;5085370;28;20883;-71
2022/12/12 09:25:57;;;;;;;19.37;9.93;;;;;;;;;;5083687;28;20451;-74
2022/12/12 09:29:00;;;;;;;29.47;13.57;;;;;;;;;;5080376;28;20457;-72
2022/12/12 09:31:40;;;;;;;46.60;20.10;;;;;;;;;;5079878;28;20452;-72
2022/12/12 09:34:13;;;;;;;23.63;11.40;;;;;;;;;;5086389;28;20534;-72
2022/12/12 09:36:56;;;;;;;20.47;12.97;;;;;;;;;;5086987;28;20796;-73
2022/12/12 09:39:54;;;;;;;28.13;15.27;;;;;;;;;;5076633;28;20806;-73
2022/12/12 09:42:29;;;;;;;29.03;13.37;;;;;;;;;;5090012;28;20570;-73
2022/12/12 09:45:22;;;;;;;31.33;13.30;;;;;;;;;;5086242;28;20452;-71
2022/12/12 09:47:55;;;;;;;24.93;12.30;;;;;;;;;;5083351;28;20459;-71
2022/12/12 09:50:36;;;;;;;28.23;12.27;;;;;;;;;;5082621;28;20455;-71
2022/12/12 09:53:18;;;;;;;21.03;11.07;;;;;;;;;;5093571;28;20508;-71
2022/12/12 09:55:49;;;;;;;27.87;13.50;;;;;;;;;;5093652;28;20452;-71
2022/12/12 09:58:23;;;;;;;21.50;10.90;;;;;;;;;;5087783;28;20475;-70
2022/12/12 10:00:56;;;;;;;17.80;10.73;;;;;;;;;;5079991;28;20466;-72
2022/12/12 10:03:30;;;;;;;19.57;10.60;;;;;;;;;;5082153;28;20464;-72
2022/12/12 10:06:05;;;;;;;22.10;12.73;;;;;;;;;;5080364;28;20483;-71
2022/12/12 10:08:39;;;;;;;18.87;11.43;;;;;;;;;;5078135;28;20451;-73
2022/12/12 10:11:48;;;;;;;16.47;10.47;;;;;;;;;;5080123;28;20483;-71
2022/12/12 10:14:00;;;;;;;16.23;8.57;;;;;;;;;;5086229;28;20460;-72
2022/12/12 10:16:30;;;;;;;24.40;11.70;;;;;;;;;;5082435;28;20510;-72
2022/12/12 10:19:04;;;;;;;24.10;13.23;;;;;;;;;;5089784;28;20516;-72
2022/12/12 10:21:36;;;;;;;24.73;12.33;;;;;;;;;;5087686;28;20463;-71
2022/12/12 10:24:14;;;;;;;21.77;11.07;;;;;;;;;;5090933;28;20456;-69
2022/12/12 10:26:44;;;;;;;18.50;10.30;;;;;;;;;;5086959;28;20470;-72
2022/12/12 10:29:14;;;;;;;36.43;16.03;;;;;;;;;;5090250;28;20964;-69
2022/12/12 10:31:58;;;;;;;25.23;12.97;;;;;;;;;;5092751;28;20540;-72
2022/12/12 10:34:50;;;;;;;28.77;15.20;;;;;;;;;;5093854;28;20499;-70
2022/12/12 10:37:37;;;;;;;23.60;11.57;;;;;;;;;;5084718;28;20890;-70
2022/12/12 10:40:25;;;;;;;18.00;9.40;;;;;;;;;;5082440;28;21938;-71
2022/12/12 10:43:04;;;;;;;35.97;13.50;;;;;;;;;;5092435;28;20459;-68
2022/12/12 10:48:29;;;;;;;19.90;12.07;;;;;;;;;;5097380;28;20745;-70
2022/12/12 10:51:16;;;;;;;19.33;10.10;;;;;;;;;;5090922;28;20537;-67
2022/12/12 10:57:06;;;;;;;26.63;13.37;;;;;;;;;;5092100;28;20967;-68
2022/12/12 10:59:51;;;;;;;29.70;13.90;;;;;;;;;;5082544;28;20488;-69
2022/12/12 11:02:37;;;;;;;28.30;12.93;;;;;;;;;;5087776;28;20562;-67
2022/12/12 11:05:20;;;;;;;20.33;11.80;;;;;;;;;;5079403;28;20448;-67
2022/12/12 11:08:13;;;;;;;21.53;12.37;;;;;;;;;;5085164;28;20466;-67
2022/12/12 11:10:57;;;;;;;16.60;9.77;;;;;;;;;;5090910;28;20466;-68
2022/12/12 11:13:30;;;;;;;22.83;11.00;;;;;;;;;;5084080;28;20499;-68
2022/12/12 11:16:13;;;;;;;18.40;9.90;;;;;;;;;;5084752;28;20457;-70
2022/12/12 11:18:47;;;;;;;33.30;16.10;;;;;;;;;;5090235;28;20509;-67
2022/12/12 11:21:46;;;;;;;;;;;;;;;;;;;;;
2022/12/12 11:30:53;;;;;;;15.43;8.97;;;;;;;;;;5076041;28;20452;-68
2022/12/12 11:33:42;;;;;;;27.00;13.87;;;;;;;;;;5077582;28;20447;-69
2022/12/12 11:36:30;;;;;;;24.63;11.87;;;;;;;;;;5082322;28;20451;-66
2022/12/12 11:39:06;;;;;;;26.60;10.37;;;;;;;;;;5096083;28;20486;-68
2022/12/12 11:41:57;;;;;;;26.33;12.03;;;;;;;;;;5077260;28;20448;-68
2022/12/12 11:44:36;;;;;;;22.03;11.20;;;;;;;;;;5088285;28;20463;-66
2022/12/12 11:47:28;;;;;;;22.80;12.17;;;;;;;;;;5091321;28;20459;-67
2022/12/12 11:50:04;;;;;;;40.20;16.80;;;;;;;;;;5082507;28;20445;-67
2022/12/12 11:52:44;;;;;;;31.03;13.20;;;;;;;;;;5083522;28;20487;-68
2022/12/12 11:55:17;;;;;;;35.83;15.20;;;;;;;;;;5084162;28;20609;-67
2022/12/12 11:57:52;;;;;;;29.17;13.63;;;;;;;;;;5077808;28;20876;-66
2022/12/12 12:00:23;;;;;;;20.07;11.90;;;;;;;;;;5082132;28;20447;-67
2022/12/12 12:03:05;;;;;;;24.80;13.53;;;;;;;;;;5084095;28;20453;-68
2022/12/12 12:05:46;;;;;;;23.47;12.47;;;;;;;;;;5086840;28;21034;-69
2022/12/12 12:11:29;;;;;;;23.53;14.43;;;;;;;;;;5079665;28;20466;-71
2022/12/12 12:14:14;;;;;;;29.37;12.70;;;;;;;;;;5092862;28;20458;-70
2022/12/12 12:16:56;;;;;;;22.70;13.70;;;;;;;;;;5084610;28;20809;-69
2022/12/12 12:20:05;;;;;;;24.77;13.57;;;;;;;;;;5082676;28;20488;-71
2022/12/12 12:22:56;;;;;;;25.13;13.07;;;;;;;;;;5074162;28;20555;-71
2022/12/12 12:25:49;;;;;;;26.97;14.07;;;;;;;;;;5084761;28;20448;-70
2022/12/12 12:28:42;;;;;;;26.60;12.40;;;;;;;;;;5074688;28;20547;-70
2022/12/12 12:31:17;;;;;;;26.43;15.73;;;;;;;;;;5083923;28;20488;-70
2022/12/12 12:34:05;;;;;;;20.50;11.10;;;;;;;;;;5081092;28;20451;-70
2022/12/12 12:36:42;;;;;;;27.73;14.80;;;;;;;;;;5083927;28;20869;-69
2022/12/12 12:39:26;;;;;;;23.10;14.13;;;;;;;;;;5081200;28;20488;-69
2022/12/12 12:42:04;;;;;;;36.50;13.20;;;;;;;;;;5081815;28;20445;-69
2022/12/12 12:45:01;;;;;;;20.60;13.10;;;;;;;;;;5075920;28;21072;-69
2022/12/12 12:47:37;;;;;;;27.70;12.47;;;;;;;;;;5075453;28;20586;-68
2022/12/12 12:50:28;;;;;;;26.40;12.67;;;;;;;;;;5079735;28;20520;-69
2022/12/12 12:53:00;;;;;;;25.70;13.90;;;;;;;;;;5075469;28;20457;-69
2022/12/12 12:58:29;;;;;;;27.07;12.83;;;;;;;;;;5078354;28;20617;-68
2022/12/12 13:01:02;;;;;;;27.03;12.97;;;;;;;;;;5082958;28;20463;-69
2022/12/12 13:03:36;;;;;;;20.80;13.37;;;;;;;;;;5082745;28;20848;-70
2022/12/12 13:06:30;;;;;;;21.30;13.97;;;;;;;;;;5085116;28;20636;-70
2022/12/12 13:09:07;;;;;;;27.67;13.00;;;;;;;;;;5089815;28;20532;-69
2022/12/12 13:11:38;;;;;;;36.50;17.40;;;;;;;;;;5073193;28;20448;-70
2022/12/12 13:14:12;;;;;;;25.50;11.60;;;;;;;;;;5072079;28;20665;-70
2022/12/12 13:16:50;;;;;;;27.17;13.17;;;;;;;;;;5081763;28;20508;-70
2022/12/12 13:19:30;;;;;;;24.90;13.17;;;;;;;;;;5085713;28;20529;-72
2022/12/12 13:22:21;;;;;;;20.33;12.43;;;;;;;;;;5077745;28;20562;-72
2022/12/12 13:25:10;;;;;;;23.67;12.90;;;;;;;;;;5075748;28;20510;-70
2022/12/12 13:27:52;;;;;;;22.03;10.90;;;;;;;;;;5092098;28;20483;-71
2022/12/12 13:33:37;;;;;;;16.97;11.07;;;;;;;;;;5073913;28;20432;-68
2022/12/12 13:36:20;;;;;;;27.63;13.00;;;;;;;;;;5076071;28;20489;-70
2022/12/12 13:38:50;;;;;;;17.87;10.83;;;;;;;;;;5095110;28;20479;-70
2022/12/12 13:41:19;;;;;;;24.17;12.30;;;;;;;;;;5092961;28;20447;-70
2022/12/12 13:43:48;;;;;;;20.37;11.80;;;;;;;;;;5093105;28;20451;-71
2022/12/12 13:46:43;;;;;;;17.13;8.63;;;;;;;;;;5094016;28;20551;-71
2022/12/12 13:49:23;;;;;;;28.73;11.53;;;;;;;;;;5040951;28;20495;-71
2022/12/12 13:52:20;;;;;;;24.00;12.87;;;;;;;;;;5085127;28;20546;-72
2022/12/12 13:55:29;;;;;;;22.37;12.03;;;;;;;;;;5080689;28;20444;-70
2022/12/12 13:58:19;;;;;;;22.93;12.03;;;;;;;;;;5091107;28;20472;-70
2022/12/12 14:01:23;;;;;;;24.73;13.13;;;;;;;;;;5096906;28;20502;-71
2022/12/12 14:03:57;;;;;;;27.73;14.83;;;;;;;;;;5073935;28;20823;-70
2022/12/12 14:06:28;;;;;;;23.13;11.87;;;;;;;;;;5092883;28;20447;-71
2022/12/12 14:09:08;;;;;;;22.10;11.43;;;;;;;;;;5085814;28;20432;-70
2022/12/12 14:11:40;;;;;;;32.03;14.03;;;;;;;;;;5094414;28;20450;-70
2022/12/12 14:14:24;;;;;;;27.80;13.07;;;;;;;;;;5091177;28;20455;-70
2022/12/12 14:16:58;;;;;;;19.53;11.10;;;;;;;;;;5098119;28;20459;-71
2022/12/12 14:19:52;;;;;;;25.30;13.80;;;;;;;;;;5092668;28;20475;-71
2022/12/12 14:25:36;;;;;;;20.70;10.30;;;;;;;;;;5084577;28;20443;-70
2022/12/12 14:28:17;;;;;;;24.50;12.60;;;;;;;;;;5095940;28;20485;-70
2022/12/12 14:31:19;;;;;;;;;;;;;;;;;;;;;
2022/12/12 14:34:12;;;;;;;26.53;12.50;;;;;;;;;;5078554;28;20500;-70
2022/12/12 14:37:07;;;;;;;26.67;12.90;;;;;;;;;;5085249;28;20484;-71
2022/12/12 14:39:51;;;;;;;28.40;13.27;;;;;;;;;;5078217;28;20476;-71
2022/12/12 14:42:47;;;;;;;27.47;13.60;;;;;;;;;;5086933;28;20484;-70
2022/12/12 14:45:38;;;;;;;23.20;12.63;;;;;;;;;;5078709;28;20527;-70
2022/12/12 14:48:25;;;;;;;27.10;12.57;;;;;;;;;;5080222;28;20471;-71
2022/12/12 14:50:57;;;;;;;25.43;12.07;;;;;;;;;;5091549;28;20471;-71
2022/12/12 14:53:58;;;;;;;24.43;12.57;;;;;;;;;;5086835;28;20735;-70
2022/12/12 14:56:44;;;;;;;;;;;;;;;;;;;;;
2022/12/12 14:59:16;;;;;;;24.30;14.07;;;;;;;;;;4973921;28;20492;-71
2022/12/12 15:01:46;;;;;;;21.63;12.27;;;;;;;;;;5075771;28;21060;-69
2022/12/12 15:04:22;;;;;;;29.33;13.33;;;;;;;;;;5089396;28;20882;-71
2022/12/12 15:07:01;;;;;;;21.33;13.37;;;;;;;;;;5096843;28;20545;-70
2022/12/12 15:09:38;;;;;;;23.47;12.47;;;;;;;;;;5093688;28;20456;-71
2022/12/12 15:12:15;;;;;;;25.70;12.17;;;;;;;;;;5095632;28;20708;-70
2022/12/12 15:15:04;;;;;;;24.73;13.73;;;;;;;;;;5093349;28;20491;-70
2022/12/12 15:20:24;;;;;;;28.13;13.63;;;;;;;;;;5090345;28;20476;-71
2022/12/12 15:23:03;;;;;;;30.53;13.60;;;;;;;;;;5083897;28;20464;-71
2022/12/12 15:28:23;;;;;;;27.13;12.60;;;;;;;;;;5092192;28;20463;-70
2022/12/12 15:30:54;;;;;;;27.07;14.77;;;;;;;;;;5091136;28;20518;-71
2022/12/12 15:33:24;;;;;;;30.57;14.03;;;;;;;;;;5093984;28;20474;-70
2022/12/12 15:35:53;;;;;;;37.33;16.00;;;;;;;;;;5094045;28;20895;-71
2022/12/12 15:38:26;;;;;;;37.00;16.90;;;;;;;;;;5095100;28;20465;-72
2022/12/12 15:41:02;;;;;;;28.43;15.53;;;;;;;;;;5094916;28;20471;-71
2022/12/12 15:43:31;;;;;;;28.70;14.97;;;;;;;;;;5093019;28;20471;-71
2022/12/12 15:46:00;;;;;;;32.37;16.73;;;;;;;;;;5077881;28;20495;-72
2022/12/12 15:48:29;;;;;;;30.40;16.03;;;;;;;;;;5088447;28;20585;-71
2022/12/12 15:51:00;;;;;;;29.77;15.03;;;;;;;;;;5094052;28;20464;-70
2022/12/12 15:53:30;;;;;;;34.10;15.77;;;;;;;;;;5087524;28;20439;-70
2022/12/12 15:56:00;;;;;;;29.67;14.53;;;;;;;;;;5095058;28;20719;-70
2022/12/12 15:58:29;;;;;;;26.87;14.53;;;;;;;;;;5095529;28;20497;-70
2022/12/12 16:01:08;;;;;;;29.27;16.07;;;;;;;;;;5095253;28;20578;-70
2022/12/12 16:03:39;;;;;;;36.37;17.30;;;;;;;;;;5094482;28;20749;-71
2022/12/12 16:06:16;;;;;;;30.37;15.60;;;;;;;;;;5088668;28;20464;-70
2022/12/12 16:08:55;;;;;;;30.10;15.67;;;;;;;;;;5095520;28;20843;-70
2022/12/12 16:11:35;;;;;;;22.70;13.00;;;;;;;;;;5088013;28;20570;-71
2022/12/12 16:14:03;;;;;;;33.53;15.87;;;;;;;;;;5093870;28;20463;-71
2022/12/12 16:16:34;;;;;;;29.23;16.87;;;;;;;;;;5094454;28;20452;-71
2022/12/12 16:19:03;;;;;;;48.87;20.80;;;;;;;;;;5093704;28;20448;-71
2022/12/12 16:21:30;;;;;;;34.10;16.80;;;;;;;;;;5094120;28;20466;-71
2022/12/12 16:24:11;;;;;;;24.03;14.33;;;;;;;;;;5094242;28;20448;-71
2022/12/12 16:26:39;;;;;;;25.27;13.60;;;;;;;;;;5093946;28;20455;-71
2022/12/12 16:29:07;;;;;;;25.90;14.87;;;;;;;;;;5089309;28;20448;-71
2022/12/12 16:31:35;;;;;;;43.13;17.87;;;;;;;;;;5091751;28;20919;-71
2022/12/12 16:34:04;;;;;;;25.63;12.70;;;;;;;;;;5093804;28;20452;-71
2022/12/12 16:36:31;;;;;;;40.97;14.03;;;;;;;;;;5093427;28;20467;-71
2022/12/12 16:38:59;;;;;;;29.40;15.60;;;;;;;;;;5093501;28;20447;-71
2022/12/12 16:44:54;;;;;;;35.43;17.20;;;;;;;;;;5058048;28;20860;-71
2022/12/12 16:50:24;;;;;;;37.60;19.70;;;;;;;;;;5081192;28;20550;-70
2022/12/12 16:53:03;;;;;;;35.37;19.80;;;;;;;;;;5082014;28;20458;-71
2022/12/12 16:55:36;;;;;;;45.30;22.00;;;;;;;;;;5093958;28;20451;-71